sensor_id;sensor_type;location;lat;lon;timestamp;P1;durP1;ratioP1;P2;durP2;ratioP2
17259;SDS011;8746;49.230;9.220;2022-07-22T00:02:09;8.10;;;7.37;;
17259;SDS011;8746;49.230;9.220;2022-07-22T00:04:35;8.50;;;7.50;;
17259;SDS011;8746;49.230;9.220;2022-07-22T00:07:00;8.53;;;7.73;;
17259;SDS011;8746;49.230;9.220;2022-07-22T00:09:26;8.43;;;7.50;;
17259;SDS011;8746;49.230;9.220;2022-07-22T00:11:51;8.40;;;7.60;;
17259;SDS011;8746;49.230;9.220;2022-07-22T00:14:17;9.60;;;7.60;;
17259;SDS011;8746;49.230;9.220;2022-07-22T00:16:42;11.37;;;7.60;;
17259;SDS011;8746;49.230;9.220;2022-07-22T00:19:08;8.33;;;7.63;;
17259;SDS011;8746;49.230;9.220;2022-07-22T00:21:34;9.17;;;8.13;;
17259;SDS011;8746;49.230;9.220;2022-07-22T00:23:59;8.13;;;7.43;;
17259;SDS011;8746;49.230;9.220;2022-07-22T00:26:24;7.97;;;7.37;;
17259;SDS011;8746;49.230;9.220;2022-07-22T00:28:50;8.47;;;7.70;;
17259;SDS011;8746;49.230;9.220;2022-07-22T00:31:15;8.50;;;7.60;;
17259;SDS011;8746;49.230;9.220;2022-07-22T00:33:41;8.07;;;7.27;;
17259;SDS011;8746;49.230;9.220;2022-07-22T00:36:10;8.70;;;7.90;;
17259;SDS011;8746;49.230;9.220;2022-07-22T00:38:35;8.87;;;7.50;;
17259;SDS011;8746;49.230;9.220;2022-07-22T00:41:01;8.03;;;7.43;;
17259;SDS011;8746;49.230;9.220;2022-07-22T00:43:26;8.03;;;7.33;;
17259;SDS011;8746;49.230;9.220;2022-07-22T00:45:52;8.67;;;7.87;;
17259;SDS011;8746;49.230;9.220;2022-07-22T00:48:18;8.23;;;7.07;;
17259;SDS011;8746;49.230;9.220;2022-07-22T00:50:43;8.80;;;8.00;;
17259;SDS011;8746;49.230;9.220;2022-07-22T00:53:10;8.27;;;7.47;;
17259;SDS011;8746;49.230;9.220;2022-07-22T00:55:35;9.20;;;8.23;;
17259;SDS011;8746;49.230;9.220;2022-07-22T00:58:02;8.90;;;8.20;;
17259;SDS011;8746;49.230;9.220;2022-07-22T01:00:28;8.67;;;7.77;;
17259;SDS011;8746;49.230;9.220;2022-07-22T01:02:54;8.17;;;7.40;;
17259;SDS011;8746;49.230;9.220;2022-07-22T01:05:19;9.53;;;8.70;;
17259;SDS011;8746;49.230;9.220;2022-07-22T01:07:45;8.83;;;7.93;;
17259;SDS011;8746;49.230;9.220;2022-07-22T01:10:10;8.77;;;7.97;;
17259;SDS011;8746;49.230;9.220;2022-07-22T01:12:36;8.27;;;7.57;;
17259;SDS011;8746;49.230;9.220;2022-07-22T01:15:02;8.67;;;7.87;;
17259;SDS011;8746;49.230;9.220;2022-07-22T01:17:28;8.63;;;7.83;;
17259;SDS011;8746;49.230;9.220;2022-07-22T01:19:58;8.90;;;8.10;;
17259;SDS011;8746;49.230;9.220;2022-07-22T01:22:25;8.90;;;8.10;;
17259;SDS011;8746;49.230;9.220;2022-07-22T01:24:52;8.57;;;7.73;;
17259;SDS011;8746;49.230;9.220;2022-07-22T01:27:17;8.47;;;7.73;;
17259;SDS011;8746;49.230;9.220;2022-07-22T01:29:42;9.10;;;8.30;;
17259;SDS011;8746;49.230;9.220;2022-07-22T01:32:08;8.10;;;7.43;;
17259;SDS011;8746;49.230;9.220;2022-07-22T01:34:34;8.53;;;7.83;;
17259;SDS011;8746;49.230;9.220;2022-07-22T01:36:59;9.20;;;8.33;;
17259;SDS011;8746;49.230;9.220;2022-07-22T01:39:25;9.10;;;8.40;;
17259;SDS011;8746;49.230;9.220;2022-07-22T01:41:50;9.00;;;8.30;;
17259;SDS011;8746;49.230;9.220;2022-07-22T01:44:16;8.70;;;8.00;;
17259;SDS011;8746;49.230;9.220;2022-07-22T01:46:41;9.80;;;8.67;;
17259;SDS011;8746;49.230;9.220;2022-07-22T01:49:06;8.70;;;8.00;;
17259;SDS011;8746;49.230;9.220;2022-07-22T01:51:32;9.00;;;8.20;;
17259;SDS011;8746;49.230;9.220;2022-07-22T01:53:57;9.37;;;8.37;;
17259;SDS011;8746;49.230;9.220;2022-07-22T01:56:22;9.50;;;8.30;;
17259;SDS011;8746;49.230;9.220;2022-07-22T01:58:48;9.20;;;8.30;;
17259;SDS011;8746;49.230;9.220;2022-07-22T02:01:13;8.33;;;7.73;;
17259;SDS011;8746;49.230;9.220;2022-07-22T02:03:39;10.60;;;8.50;;
17259;SDS011;8746;49.230;9.220;2022-07-22T02:06:04;9.40;;;8.50;;
17259;SDS011;8746;49.230;9.220;2022-07-22T02:08:30;9.13;;;8.30;;
17259;SDS011;8746;49.230;9.220;2022-07-22T02:10:55;8.57;;;7.87;;
17259;SDS011;8746;49.230;9.220;2022-07-22T02:13:20;9.43;;;8.53;;
17259;SDS011;8746;49.230;9.220;2022-07-22T02:15:46;8.90;;;8.10;;
17259;SDS011;8746;49.230;9.220;2022-07-22T02:18:17;9.67;;;8.83;;
17259;SDS011;8746;49.230;9.220;2022-07-22T02:20:44;9.37;;;8.57;;
17259;SDS011;8746;49.230;9.220;2022-07-22T02:23:10;8.93;;;8.10;;
17259;SDS011;8746;49.230;9.220;2022-07-22T02:25:36;8.87;;;8.13;;
17259;SDS011;8746;49.230;9.220;2022-07-22T02:28:02;8.97;;;8.07;;
17259;SDS011;8746;49.230;9.220;2022-07-22T02:30:28;8.90;;;8.13;;
17259;SDS011;8746;49.230;9.220;2022-07-22T02:32:54;8.77;;;8.07;;
17259;SDS011;8746;49.230;9.220;2022-07-22T02:35:19;9.40;;;8.40;;
17259;SDS011;8746;49.230;9.220;2022-07-22T02:37:44;8.90;;;8.10;;
17259;SDS011;8746;49.230;9.220;2022-07-22T02:40:10;9.80;;;8.80;;
17259;SDS011;8746;49.230;9.220;2022-07-22T02:42:35;9.10;;;8.13;;
17259;SDS011;8746;49.230;9.220;2022-07-22T02:45:01;10.70;;;8.73;;
17259;SDS011;8746;49.230;9.220;2022-07-22T02:47:28;9.40;;;8.50;;
17259;SDS011;8746;49.230;9.220;2022-07-22T02:49:53;8.93;;;8.13;;
17259;SDS011;8746;49.230;9.220;2022-07-22T02:52:19;9.17;;;8.27;;
17259;SDS011;8746;49.230;9.220;2022-07-22T02:54:44;9.10;;;8.30;;
17259;SDS011;8746;49.230;9.220;2022-07-22T02:57:10;9.37;;;8.50;;
17259;SDS011;8746;49.230;9.220;2022-07-22T02:59:35;9.77;;;8.87;;
17259;SDS011;8746;49.230;9.220;2022-07-22T03:02:01;9.80;;;8.93;;
17259;SDS011;8746;49.230;9.220;2022-07-22T03:04:26;10.33;;;8.90;;
17259;SDS011;8746;49.230;9.220;2022-07-22T03:06:52;9.57;;;8.57;;
17259;SDS011;8746;49.230;9.220;2022-07-22T03:09:18;9.27;;;8.37;;
17259;SDS011;8746;49.230;9.220;2022-07-22T03:11:44;9.03;;;8.23;;
17259;SDS011;8746;49.230;9.220;2022-07-22T03:14:09;10.13;;;8.83;;
17259;SDS011;8746;49.230;9.220;2022-07-22T03:16:35;9.20;;;8.30;;
17259;SDS011;8746;49.230;9.220;2022-07-22T03:19:00;9.43;;;8.63;;
17259;SDS011;8746;49.230;9.220;2022-07-22T03:21:26;9.50;;;8.70;;
17259;SDS011;8746;49.230;9.220;2022-07-22T03:23:51;9.23;;;8.37;;
17259;SDS011;8746;49.230;9.220;2022-07-22T03:26:19;9.43;;;8.57;;
17259;SDS011;8746;49.230;9.220;2022-07-22T03:28:45;9.77;;;8.87;;
17259;SDS011;8746;49.230;9.220;2022-07-22T03:31:12;9.13;;;8.43;;
17259;SDS011;8746;49.230;9.220;2022-07-22T03:33:37;9.57;;;8.73;;
17259;SDS011;8746;49.230;9.220;2022-07-22T03:36:03;11.07;;;9.00;;
17259;SDS011;8746;49.230;9.220;2022-07-22T03:38:30;9.87;;;8.97;;
17259;SDS011;8746;49.230;9.220;2022-07-22T03:40:56;9.67;;;8.87;;
17259;SDS011;8746;49.230;9.220;2022-07-22T03:43:21;9.53;;;8.67;;
17259;SDS011;8746;49.230;9.220;2022-07-22T03:45:46;9.50;;;8.60;;
17259;SDS011;8746;49.230;9.220;2022-07-22T03:48:12;9.57;;;8.67;;
17259;SDS011;8746;49.230;9.220;2022-07-22T03:50:37;10.27;;;9.37;;
17259;SDS011;8746;49.230;9.220;2022-07-22T03:53:03;9.97;;;8.97;;
17259;SDS011;8746;49.230;9.220;2022-07-22T03:55:28;9.40;;;8.60;;
17259;SDS011;8746;49.230;9.220;2022-07-22T03:57:53;9.77;;;8.97;;
17259;SDS011;8746;49.230;9.220;2022-07-22T04:00:19;10.30;;;9.30;;
17259;SDS011;8746;49.230;9.220;2022-07-22T04:02:44;10.07;;;9.20;;
17259;SDS011;8746;49.230;9.220;2022-07-22T04:05:10;9.63;;;8.83;;
17259;SDS011;8746;49.230;9.220;2022-07-22T04:07:36;10.47;;;9.47;;
17259;SDS011;8746;49.230;9.220;2022-07-22T04:10:01;10.17;;;9.30;;
17259;SDS011;8746;49.230;9.220;2022-07-22T04:12:36;9.70;;;8.90;;
17259;SDS011;8746;49.230;9.220;2022-07-22T04:15:03;9.97;;;9.13;;
17259;SDS011;8746;49.230;9.220;2022-07-22T04:17:29;10.47;;;9.47;;
17259;SDS011;8746;49.230;9.220;2022-07-22T04:19:54;10.13;;;9.27;;
17259;SDS011;8746;49.230;9.220;2022-07-22T04:22:20;11.83;;;9.47;;
17259;SDS011;8746;49.230;9.220;2022-07-22T04:24:46;10.23;;;9.33;;
17259;SDS011;8746;49.230;9.220;2022-07-22T04:27:11;10.07;;;9.03;;
17259;SDS011;8746;49.230;9.220;2022-07-22T04:29:36;10.53;;;9.63;;
17259;SDS011;8746;49.230;9.220;2022-07-22T04:32:02;10.90;;;9.63;;
17259;SDS011;8746;49.230;9.220;2022-07-22T04:34:27;10.70;;;9.70;;
17259;SDS011;8746;49.230;9.220;2022-07-22T04:36:53;9.57;;;8.63;;
17259;SDS011;8746;49.230;9.220;2022-07-22T04:39:18;9.90;;;9.00;;
17259;SDS011;8746;49.230;9.220;2022-07-22T04:41:43;9.93;;;9.13;;
17259;SDS011;8746;49.230;9.220;2022-07-22T04:44:09;9.77;;;8.93;;
17259;SDS011;8746;49.230;9.220;2022-07-22T04:46:34;10.90;;;9.73;;
17259;SDS011;8746;49.230;9.220;2022-07-22T04:48:59;10.40;;;9.47;;
17259;SDS011;8746;49.230;9.220;2022-07-22T04:51:25;11.00;;;10.00;;
17259;SDS011;8746;49.230;9.220;2022-07-22T04:53:50;10.30;;;9.30;;
17259;SDS011;8746;49.230;9.220;2022-07-22T04:56:16;10.73;;;9.57;;
17259;SDS011;8746;49.230;9.220;2022-07-22T04:58:41;10.60;;;9.50;;
17259;SDS011;8746;49.230;9.220;2022-07-22T05:01:06;11.20;;;10.20;;
17259;SDS011;8746;49.230;9.220;2022-07-22T05:03:32;12.83;;;10.53;;
17259;SDS011;8746;49.230;9.220;2022-07-22T05:05:57;11.20;;;10.13;;
17259;SDS011;8746;49.230;9.220;2022-07-22T05:08:24;10.77;;;9.87;;
17259;SDS011;8746;49.230;9.220;2022-07-22T05:10:49;10.80;;;9.37;;
17259;SDS011;8746;49.230;9.220;2022-07-22T05:13:14;11.20;;;10.20;;
17259;SDS011;8746;49.230;9.220;2022-07-22T05:15:40;10.83;;;9.63;;
17259;SDS011;8746;49.230;9.220;2022-07-22T05:18:05;11.67;;;9.90;;
17259;SDS011;8746;49.230;9.220;2022-07-22T05:20:31;10.73;;;9.80;;
17259;SDS011;8746;49.230;9.220;2022-07-22T05:22:56;10.70;;;9.70;;
17259;SDS011;8746;49.230;9.220;2022-07-22T05:25:22;10.50;;;9.50;;
17259;SDS011;8746;49.230;9.220;2022-07-22T05:27:51;11.13;;;10.10;;
17259;SDS011;8746;49.230;9.220;2022-07-22T05:30:17;10.47;;;9.47;;
17259;SDS011;8746;49.230;9.220;2022-07-22T05:32:43;10.80;;;9.70;;
17259;SDS011;8746;49.230;9.220;2022-07-22T05:35:08;10.73;;;9.83;;
17259;SDS011;8746;49.230;9.220;2022-07-22T05:37:34;11.50;;;9.53;;
17259;SDS011;8746;49.230;9.220;2022-07-22T05:39:59;9.87;;;8.97;;
17259;SDS011;8746;49.230;9.220;2022-07-22T05:42:25;13.00;;;10.07;;
17259;SDS011;8746;49.230;9.220;2022-07-22T05:44:50;9.90;;;9.10;;
17259;SDS011;8746;49.230;9.220;2022-07-22T05:47:15;10.57;;;9.67;;
17259;SDS011;8746;49.230;9.220;2022-07-22T05:49:41;10.33;;;9.33;;
17259;SDS011;8746;49.230;9.220;2022-07-22T05:52:06;9.50;;;8.80;;
17259;SDS011;8746;49.230;9.220;2022-07-22T05:54:31;10.33;;;9.43;;
17259;SDS011;8746;49.230;9.220;2022-07-22T05:56:57;10.10;;;9.10;;
17259;SDS011;8746;49.230;9.220;2022-07-22T05:59:22;10.17;;;9.27;;
17259;SDS011;8746;49.230;9.220;2022-07-22T06:01:48;9.70;;;8.77;;
17259;SDS011;8746;49.230;9.220;2022-07-22T06:04:14;10.03;;;9.03;;
17259;SDS011;8746;49.230;9.220;2022-07-22T06:06:39;9.13;;;8.33;;
17259;SDS011;8746;49.230;9.220;2022-07-22T06:09:04;8.60;;;7.70;;
17259;SDS011;8746;49.230;9.220;2022-07-22T06:11:30;9.53;;;8.60;;
17259;SDS011;8746;49.230;9.220;2022-07-22T06:13:55;9.00;;;8.20;;
17259;SDS011;8746;49.230;9.220;2022-07-22T06:16:20;9.23;;;8.43;;
17259;SDS011;8746;49.230;9.220;2022-07-22T06:18:46;9.17;;;8.27;;
17259;SDS011;8746;49.230;9.220;2022-07-22T06:21:11;8.87;;;8.07;;
17259;SDS011;8746;49.230;9.220;2022-07-22T06:23:37;9.13;;;8.23;;
17259;SDS011;8746;49.230;9.220;2022-07-22T06:26:02;8.70;;;8.00;;
17259;SDS011;8746;49.230;9.220;2022-07-22T06:28:27;8.67;;;7.87;;
17259;SDS011;8746;49.230;9.220;2022-07-22T06:30:54;8.63;;;7.80;;
17259;SDS011;8746;49.230;9.220;2022-07-22T06:33:19;7.93;;;7.23;;
17259;SDS011;8746;49.230;9.220;2022-07-22T06:35:45;7.53;;;6.60;;
17259;SDS011;8746;49.230;9.220;2022-07-22T06:38:10;8.32;;;7.20;;
17259;SDS011;8746;49.230;9.220;2022-07-22T06:40:35;7.77;;;7.07;;
17259;SDS011;8746;49.230;9.220;2022-07-22T06:43:01;7.40;;;6.80;;
17259;SDS011;8746;49.230;9.220;2022-07-22T06:45:27;7.40;;;6.70;;
17259;SDS011;8746;49.230;9.220;2022-07-22T06:47:53;7.00;;;6.28;;
17259;SDS011;8746;49.230;9.220;2022-07-22T06:50:18;6.97;;;6.23;;
17259;SDS011;8746;49.230;9.220;2022-07-22T06:52:44;7.03;;;6.28;;
17259;SDS011;8746;49.230;9.220;2022-07-22T06:55:09;7.95;;;5.85;;
17259;SDS011;8746;49.230;9.220;2022-07-22T06:57:35;7.18;;;6.57;;
17259;SDS011;8746;49.230;9.220;2022-07-22T07:00:03;7.97;;;6.38;;
17259;SDS011;8746;49.230;9.220;2022-07-22T07:02:29;7.40;;;6.70;;
17259;SDS011;8746;49.230;9.220;2022-07-22T07:04:55;6.80;;;6.30;;
17259;SDS011;8746;49.230;9.220;2022-07-22T07:07:20;7.65;;;6.30;;
17259;SDS011;8746;49.230;9.220;2022-07-22T07:09:46;7.25;;;6.65;;
17259;SDS011;8746;49.230;9.220;2022-07-22T07:12:11;6.60;;;5.97;;
17259;SDS011;8746;49.230;9.220;2022-07-22T07:14:36;6.68;;;6.18;;
17259;SDS011;8746;49.230;9.220;2022-07-22T07:17:02;6.82;;;6.13;;
17259;SDS011;8746;49.230;9.220;2022-07-22T07:19:27;6.70;;;6.10;;
17259;SDS011;8746;49.230;9.220;2022-07-22T07:21:52;6.57;;;6.00;;
17259;SDS011;8746;49.230;9.220;2022-07-22T07:24:18;7.05;;;6.45;;
17259;SDS011;8746;49.230;9.220;2022-07-22T07:26:43;7.05;;;6.45;;
17259;SDS011;8746;49.230;9.220;2022-07-22T07:29:08;6.40;;;5.90;;
17259;SDS011;8746;49.230;9.220;2022-07-22T07:31:34;6.32;;;5.82;;
17259;SDS011;8746;49.230;9.220;2022-07-22T07:33:59;6.32;;;5.82;;
17259;SDS011;8746;49.230;9.220;2022-07-22T07:36:25;7.38;;;6.78;;
17259;SDS011;8746;49.230;9.220;2022-07-22T07:38:50;8.88;;;6.55;;
17259;SDS011;8746;49.230;9.220;2022-07-22T07:41:16;6.28;;;5.65;;
17259;SDS011;8746;49.230;9.220;2022-07-22T07:43:42;7.03;;;5.90;;
17259;SDS011;8746;49.230;9.220;2022-07-22T07:46:07;6.47;;;5.88;;
17259;SDS011;8746;49.230;9.220;2022-07-22T07:48:33;6.65;;;5.97;;
17259;SDS011;8746;49.230;9.220;2022-07-22T07:50:59;7.10;;;6.40;;
17259;SDS011;8746;49.230;9.220;2022-07-22T07:53:24;6.05;;;5.55;;
17259;SDS011;8746;49.230;9.220;2022-07-22T07:55:50;6.50;;;5.63;;
17259;SDS011;8746;49.230;9.220;2022-07-22T07:58:16;6.93;;;6.07;;
17259;SDS011;8746;49.230;9.220;2022-07-22T08:00:41;6.60;;;5.80;;
17259;SDS011;8746;49.230;9.220;2022-07-22T08:03:07;5.65;;;5.25;;
17259;SDS011;8746;49.230;9.220;2022-07-22T08:05:33;6.47;;;5.68;;
17259;SDS011;8746;49.230;9.220;2022-07-22T08:07:59;5.80;;;5.40;;
17259;SDS011;8746;49.230;9.220;2022-07-22T08:10:24;6.40;;;5.78;;
17259;SDS011;8746;49.230;9.220;2022-07-22T08:12:51;6.68;;;5.97;;
17259;SDS011;8746;49.230;9.220;2022-07-22T08:15:17;8.00;;;6.22;;
17259;SDS011;8746;49.230;9.220;2022-07-22T08:17:42;5.80;;;5.35;;
17259;SDS011;8746;49.230;9.220;2022-07-22T08:20:08;5.53;;;5.13;;
17259;SDS011;8746;49.230;9.220;2022-07-22T08:22:33;6.80;;;6.30;;
17259;SDS011;8746;49.230;9.220;2022-07-22T08:24:59;6.65;;;6.00;;
17259;SDS011;8746;49.230;9.220;2022-07-22T08:27:24;6.25;;;5.63;;
17259;SDS011;8746;49.230;9.220;2022-07-22T08:29:50;5.88;;;5.32;;
17259;SDS011;8746;49.230;9.220;2022-07-22T08:32:15;6.32;;;5.72;;
17259;SDS011;8746;49.230;9.220;2022-07-22T08:34:41;6.55;;;5.95;;
17259;SDS011;8746;49.230;9.220;2022-07-22T08:37:06;6.40;;;5.90;;
17259;SDS011;8746;49.230;9.220;2022-07-22T08:39:32;6.75;;;6.00;;
17259;SDS011;8746;49.230;9.220;2022-07-22T08:41:59;6.80;;;6.20;;
17259;SDS011;8746;49.230;9.220;2022-07-22T08:44:28;6.53;;;6.03;;
17259;SDS011;8746;49.230;9.220;2022-07-22T08:46:54;6.65;;;6.13;;
17259;SDS011;8746;49.230;9.220;2022-07-22T08:49:20;6.10;;;5.60;;
17259;SDS011;8746;49.230;9.220;2022-07-22T08:51:45;7.55;;;5.90;;
17259;SDS011;8746;49.230;9.220;2022-07-22T08:54:11;6.25;;;5.75;;
17259;SDS011;8746;49.230;9.220;2022-07-22T08:56:36;7.60;;;6.07;;
17259;SDS011;8746;49.230;9.220;2022-07-22T08:59:03;6.57;;;5.97;;
17259;SDS011;8746;49.230;9.220;2022-07-22T09:01:29;6.40;;;5.80;;
17259;SDS011;8746;49.230;9.220;2022-07-22T09:03:55;6.10;;;5.60;;
17259;SDS011;8746;49.230;9.220;2022-07-22T09:06:23;6.22;;;5.72;;
17259;SDS011;8746;49.230;9.220;2022-07-22T09:08:57;5.95;;;5.45;;
17259;SDS011;8746;49.230;9.220;2022-07-22T09:11:27;6.55;;;5.65;;
17259;SDS011;8746;49.230;9.220;2022-07-22T09:13:53;6.25;;;5.75;;
17259;SDS011;8746;49.230;9.220;2022-07-22T09:19:04;5.85;;;5.35;;
17259;SDS011;8746;49.230;9.220;2022-07-22T09:21:30;6.90;;;6.18;;
17259;SDS011;8746;49.230;9.220;2022-07-22T09:23:56;7.05;;;6.40;;
17259;SDS011;8746;49.230;9.220;2022-07-22T09:26:32;6.43;;;5.82;;
17259;SDS011;8746;49.230;9.220;2022-07-22T09:29:00;6.47;;;5.88;;
17259;SDS011;8746;49.230;9.220;2022-07-22T09:31:29;6.82;;;5.78;;
17259;SDS011;8746;49.230;9.220;2022-07-22T09:33:59;6.38;;;5.85;;
17259;SDS011;8746;49.230;9.220;2022-07-22T09:36:25;6.78;;;6.20;;
17259;SDS011;8746;49.230;9.220;2022-07-22T09:38:52;6.32;;;5.72;;
17259;SDS011;8746;49.230;9.220;2022-07-22T09:41:17;6.13;;;5.60;;
17259;SDS011;8746;49.230;9.220;2022-07-22T09:43:43;5.97;;;5.47;;
17259;SDS011;8746;49.230;9.220;2022-07-22T09:46:09;6.35;;;5.75;;
17259;SDS011;8746;49.230;9.220;2022-07-22T09:48:35;6.47;;;5.88;;
17259;SDS011;8746;49.230;9.220;2022-07-22T09:51:02;6.38;;;5.90;;
17259;SDS011;8746;49.230;9.220;2022-07-22T09:53:28;6.82;;;6.13;;
17259;SDS011;8746;49.230;9.220;2022-07-22T09:55:58;6.13;;;5.53;;
17259;SDS011;8746;49.230;9.220;2022-07-22T09:58:28;6.65;;;6.05;;
17259;SDS011;8746;49.230;9.220;2022-07-22T10:00:54;7.72;;;6.20;;
17259;SDS011;8746;49.230;9.220;2022-07-22T10:03:26;6.13;;;5.60;;
17259;SDS011;8746;49.230;9.220;2022-07-22T10:05:53;6.53;;;5.78;;
17259;SDS011;8746;49.230;9.220;2022-07-22T10:08:18;6.13;;;5.63;;
17259;SDS011;8746;49.230;9.220;2022-07-22T10:10:44;6.25;;;5.72;;
17259;SDS011;8746;49.230;9.220;2022-07-22T10:13:10;7.75;;;5.95;;
17259;SDS011;8746;49.230;9.220;2022-07-22T10:15:36;6.53;;;5.85;;
17259;SDS011;8746;49.230;9.220;2022-07-22T10:18:03;5.95;;;5.43;;
17259;SDS011;8746;49.230;9.220;2022-07-22T10:20:34;6.38;;;5.78;;
17259;SDS011;8746;49.230;9.220;2022-07-22T10:23:00;6.25;;;5.68;;
17259;SDS011;8746;49.230;9.220;2022-07-22T10:25:31;6.05;;;5.43;;
17259;SDS011;8746;49.230;9.220;2022-07-22T10:28:19;6.55;;;5.93;;
17259;SDS011;8746;49.230;9.220;2022-07-22T10:30:47;6.07;;;5.60;;
17259;SDS011;8746;49.230;9.220;2022-07-22T10:33:13;6.13;;;5.60;;
17259;SDS011;8746;49.230;9.220;2022-07-22T10:38:08;6.30;;;5.43;;
17259;SDS011;8746;49.230;9.220;2022-07-22T10:40:56;6.15;;;5.40;;
17259;SDS011;8746;49.230;9.220;2022-07-22T10:43:22;6.05;;;5.55;;
17259;SDS011;8746;49.230;9.220;2022-07-22T10:51:05;6.13;;;5.63;;
17259;SDS011;8746;49.230;9.220;2022-07-22T10:56:35;5.55;;;5.05;;
17259;SDS011;8746;49.230;9.220;2022-07-22T11:01:32;6.07;;;5.50;;
17259;SDS011;8746;49.230;9.220;2022-07-22T11:06:40;5.68;;;5.18;;
17259;SDS011;8746;49.230;9.220;2022-07-22T11:09:08;5.78;;;5.28;;
17259;SDS011;8746;49.230;9.220;2022-07-22T11:11:42;5.53;;;4.93;;
17259;SDS011;8746;49.230;9.220;2022-07-22T11:14:12;5.63;;;5.13;;
17259;SDS011;8746;49.230;9.220;2022-07-22T11:16:37;5.28;;;4.82;;
17259;SDS011;8746;49.230;9.220;2022-07-22T11:19:03;5.57;;;5.03;;
17259;SDS011;8746;49.230;9.220;2022-07-22T11:21:29;5.93;;;5.35;;
17259;SDS011;8746;49.230;9.220;2022-07-22T11:23:57;5.55;;;5.15;;
17259;SDS011;8746;49.230;9.220;2022-07-22T11:26:32;5.63;;;5.13;;
17259;SDS011;8746;49.230;9.220;2022-07-22T11:29:10;6.05;;;4.90;;
17259;SDS011;8746;49.230;9.220;2022-07-22T11:31:41;5.38;;;4.97;;
17259;SDS011;8746;49.230;9.220;2022-07-22T11:34:10;5.72;;;5.20;;
17259;SDS011;8746;49.230;9.220;2022-07-22T11:36:40;7.88;;;5.03;;
17259;SDS011;8746;49.230;9.220;2022-07-22T11:39:07;4.90;;;4.60;;
17259;SDS011;8746;49.230;9.220;2022-07-22T11:41:34;5.32;;;4.65;;
17259;SDS011;8746;49.230;9.220;2022-07-22T11:44:00;5.20;;;4.80;;
17259;SDS011;8746;49.230;9.220;2022-07-22T11:46:27;5.50;;;5.00;;
17259;SDS011;8746;49.230;9.220;2022-07-22T11:48:59;6.93;;;4.88;;
17259;SDS011;8746;49.230;9.220;2022-07-22T11:51:27;5.40;;;5.07;;
17259;SDS011;8746;49.230;9.220;2022-07-22T11:53:55;5.65;;;5.15;;
17259;SDS011;8746;49.230;9.220;2022-07-22T11:56:21;5.47;;;5.07;;
17259;SDS011;8746;49.230;9.220;2022-07-22T11:58:47;5.72;;;5.30;;
17259;SDS011;8746;49.230;9.220;2022-07-22T12:01:16;5.05;;;4.75;;
17259;SDS011;8746;49.230;9.220;2022-07-22T12:03:47;5.13;;;4.82;;
17259;SDS011;8746;49.230;9.220;2022-07-22T12:06:14;5.78;;;5.28;;
17259;SDS011;8746;49.230;9.220;2022-07-22T12:08:42;5.05;;;4.63;;
17259;SDS011;8746;49.230;9.220;2022-07-22T12:11:11;4.95;;;4.55;;
17259;SDS011;8746;49.230;9.220;2022-07-22T12:13:48;5.57;;;5.03;;
17259;SDS011;8746;49.230;9.220;2022-07-22T12:16:16;5.35;;;4.88;;
17259;SDS011;8746;49.230;9.220;2022-07-22T12:18:52;5.53;;;5.13;;
17259;SDS011;8746;49.230;9.220;2022-07-22T12:21:23;5.35;;;4.95;;
17259;SDS011;8746;49.230;9.220;2022-07-22T12:23:53;5.35;;;4.95;;
17259;SDS011;8746;49.230;9.220;2022-07-22T12:26:35;5.28;;;4.88;;
17259;SDS011;8746;49.230;9.220;2022-07-22T12:31:58;5.18;;;4.78;;
17259;SDS011;8746;49.230;9.220;2022-07-22T12:34:28;5.20;;;4.80;;
17259;SDS011;8746;49.230;9.220;2022-07-22T12:40:04;5.38;;;4.95;;
17259;SDS011;8746;49.230;9.220;2022-07-22T12:42:33;5.60;;;5.15;;
17259;SDS011;8746;49.230;9.220;2022-07-22T12:47:46;5.38;;;4.90;;
17259;SDS011;8746;49.230;9.220;2022-07-22T12:53:11;5.13;;;4.72;;
17259;SDS011;8746;49.230;9.220;2022-07-22T12:55:42;5.82;;;5.32;;
17259;SDS011;8746;49.230;9.220;2022-07-22T12:58:09;4.88;;;4.53;;
17259;SDS011;8746;49.230;9.220;2022-07-22T13:00:42;5.65;;;4.82;;
17259;SDS011;8746;49.230;9.220;2022-07-22T13:03:12;5.70;;;5.20;;
17259;SDS011;8746;49.230;9.220;2022-07-22T13:05:38;5.28;;;4.80;;
17259;SDS011;8746;49.230;9.220;2022-07-22T13:08:03;5.30;;;4.90;;
17259;SDS011;8746;49.230;9.220;2022-07-22T13:10:29;6.50;;;4.80;;
17259;SDS011;8746;49.230;9.220;2022-07-22T13:12:55;4.88;;;4.40;;
17259;SDS011;8746;49.230;9.220;2022-07-22T13:15:21;5.20;;;4.60;;
17259;SDS011;8746;49.230;9.220;2022-07-22T13:17:48;8.43;;;5.28;;
17259;SDS011;8746;49.230;9.220;2022-07-22T13:20:15;6.45;;;4.95;;
17259;SDS011;8746;49.230;9.220;2022-07-22T13:22:42;5.13;;;4.68;;
17259;SDS011;8746;49.230;9.220;2022-07-22T13:25:09;4.97;;;4.57;;
17259;SDS011;8746;49.230;9.220;2022-07-22T13:27:35;5.18;;;4.80;;
17259;SDS011;8746;49.230;9.220;2022-07-22T13:30:01;5.45;;;4.90;;
17259;SDS011;8746;49.230;9.220;2022-07-22T13:32:27;5.55;;;5.05;;
17259;SDS011;8746;49.230;9.220;2022-07-22T13:34:53;5.43;;;5.05;;
17259;SDS011;8746;49.230;9.220;2022-07-22T13:37:19;4.85;;;4.53;;
17259;SDS011;8746;49.230;9.220;2022-07-22T13:39:45;5.45;;;4.95;;
17259;SDS011;8746;49.230;9.220;2022-07-22T13:42:12;5.20;;;4.70;;
17259;SDS011;8746;49.230;9.220;2022-07-22T13:44:38;5.28;;;4.85;;
17259;SDS011;8746;49.230;9.220;2022-07-22T13:47:03;5.03;;;4.70;;
17259;SDS011;8746;49.230;9.220;2022-07-22T13:49:29;5.22;;;4.80;;
17259;SDS011;8746;49.230;9.220;2022-07-22T13:51:55;5.55;;;5.05;;
17259;SDS011;8746;49.230;9.220;2022-07-22T13:54:20;5.38;;;4.90;;
17259;SDS011;8746;49.230;9.220;2022-07-22T13:56:46;5.65;;;4.32;;
17259;SDS011;8746;49.230;9.220;2022-07-22T13:59:14;5.32;;;4.82;;
17259;SDS011;8746;49.230;9.220;2022-07-22T14:01:41;4.80;;;4.50;;
17259;SDS011;8746;49.230;9.220;2022-07-22T14:04:06;5.78;;;5.28;;
17259;SDS011;8746;49.230;9.220;2022-07-22T14:06:32;5.53;;;5.03;;
17259;SDS011;8746;49.230;9.220;2022-07-22T14:08:58;5.38;;;4.88;;
17259;SDS011;8746;49.230;9.220;2022-07-22T14:11:24;5.10;;;4.70;;
17259;SDS011;8746;49.230;9.220;2022-07-22T14:13:49;4.65;;;4.25;;
17259;SDS011;8746;49.230;9.220;2022-07-22T14:16:14;4.75;;;4.45;;
17259;SDS011;8746;49.230;9.220;2022-07-22T14:18:58;5.82;;;4.68;;
17259;SDS011;8746;49.230;9.220;2022-07-22T14:21:24;4.75;;;4.40;;
17259;SDS011;8746;49.230;9.220;2022-07-22T14:23:50;4.85;;;4.45;;
17259;SDS011;8746;49.230;9.220;2022-07-22T14:26:15;5.72;;;4.70;;
17259;SDS011;8746;49.230;9.220;2022-07-22T14:28:40;4.70;;;4.38;;
17259;SDS011;8746;49.230;9.220;2022-07-22T14:31:06;5.72;;;4.80;;
17259;SDS011;8746;49.230;9.220;2022-07-22T14:33:31;5.30;;;4.30;;
17259;SDS011;8746;49.230;9.220;2022-07-22T14:35:56;4.82;;;4.53;;
17259;SDS011;8746;49.230;9.220;2022-07-22T14:38:22;6.43;;;4.63;;
17259;SDS011;8746;49.230;9.220;2022-07-22T14:40:47;5.75;;;4.68;;
17259;SDS011;8746;49.230;9.220;2022-07-22T14:43:13;5.43;;;4.40;;
17259;SDS011;8746;49.230;9.220;2022-07-22T14:45:38;6.43;;;4.45;;
17259;SDS011;8746;49.230;9.220;2022-07-22T14:48:04;4.18;;;3.83;;
17259;SDS011;8746;49.230;9.220;2022-07-22T14:50:30;5.00;;;4.60;;
17259;SDS011;8746;49.230;9.220;2022-07-22T14:52:55;4.80;;;4.40;;
17259;SDS011;8746;49.230;9.220;2022-07-22T14:55:21;5.38;;;4.55;;
17259;SDS011;8746;49.230;9.220;2022-07-22T14:57:46;4.60;;;4.30;;
17259;SDS011;8746;49.230;9.220;2022-07-22T15:00:11;4.30;;;4.00;;
17259;SDS011;8746;49.230;9.220;2022-07-22T15:02:37;4.40;;;3.83;;
17259;SDS011;8746;49.230;9.220;2022-07-22T15:05:03;4.55;;;4.15;;
17259;SDS011;8746;49.230;9.220;2022-07-22T15:07:28;6.38;;;4.20;;
17259;SDS011;8746;49.230;9.220;2022-07-22T15:09:54;4.28;;;3.97;;
17259;SDS011;8746;49.230;9.220;2022-07-22T15:12:19;3.95;;;3.65;;
17259;SDS011;8746;49.230;9.220;2022-07-22T15:14:45;4.40;;;4.00;;
17259;SDS011;8746;49.230;9.220;2022-07-22T15:17:10;4.97;;;4.47;;
17259;SDS011;8746;49.230;9.220;2022-07-22T15:19:35;4.15;;;3.85;;
17259;SDS011;8746;49.230;9.220;2022-07-22T15:22:01;4.90;;;3.90;;
17259;SDS011;8746;49.230;9.220;2022-07-22T15:24:26;5.00;;;3.88;;
17259;SDS011;8746;49.230;9.220;2022-07-22T15:26:52;4.30;;;4.00;;